Time;durP1;ratioP1;P1;durP2;ratioP2;P2;SDS_P1;SDS_P2;PMS_P1;PMS_P2;Temp;Humidity;BMP_temperature;BMP_pressure;BME280_temperature;BME280_humidity;BME280_pressure;Samples;Min_cycle;Max_cycle;Signal;HPM_P1;HPM_P2
2022/05/03 00:01:32;;;;;;;;;;;22.90;38.50;;;;;;6177578;28;19933;-56
2022/05/03 00:04:38;;;;;;;;;;;23.10;38.60;;;;;;6179223;28;20430;-55
2022/05/03 00:07:43;;;;;;;;;;;23.20;38.70;;;;;;6180530;28;20604;-55
2022/05/03 00:10:51;;;;;;;;;;;23.20;38.70;;;;;;6176067;28;19925;-54
2022/05/03 00:13:56;;;;;;;;;;;23.10;38.70;;;;;;6174677;28;19936;-55
2022/05/03 00:16:58;;;;;;;;;;;23.00;38.60;;;;;;6176869;28;20555;-56
2022/05/03 00:20:00;;;;;;;;;;;23.30;38.80;;;;;;6171079;28;19929;-54
2022/05/03 00:23:02;;;;;;;;;;;22.60;38.40;;;;;;6179463;28;19979;-56
2022/05/03 00:26:03;;;;;;;;;;;22.60;38.40;;;;;;6181721;28;20547;-56
2022/05/03 00:29:06;;;;;;;;;;;23.10;38.70;;;;;;6180926;28;19929;-54
2022/05/03 00:32:08;;;;;;;;;;;23.10;38.70;;;;;;6178571;28;19944;-58
2022/05/03 00:35:09;;;;;;;;;;;22.90;38.50;;;;;;6181475;28;19965;-56
2022/05/03 00:38:10;;;;;;;;;;;22.60;38.40;;;;;;6184833;28;20021;-56
2022/05/03 00:41:15;;;;;;;;;;;23.10;38.60;;;;;;6183780;28;20028;-56
2022/05/03 00:47:41;;;;;;;;;;;23.00;38.50;;;;;;6182639;28;19925;-54
2022/05/03 00:50:44;;;;;;;;;;;22.70;38.40;;;;;;6168482;28;19925;-55
2022/05/03 00:53:55;;;;;;;;;;;23.00;38.60;;;;;;6185185;28;19979;-53
2022/05/03 00:57:02;;;;;;;;;;;23.00;38.40;;;;;;6184162;28;19976;-55
2022/05/03 01:00:07;;;;;;;;;;;23.00;38.50;;;;;;6184298;28;20844;-55
2022/05/03 01:03:11;;;;;;;;;;;23.00;38.40;;;;;;6166670;28;19998;-59
2022/05/03 01:06:17;;;;;;;;;;;22.90;38.40;;;;;;6168475;28;19929;-58
2022/05/03 01:09:23;;;;;;;;;;;22.70;38.30;;;;;;6178372;28;19925;-55
2022/05/03 01:12:25;;;;;;;;;;;22.80;38.40;;;;;;6188848;28;19956;-54
2022/05/03 01:15:30;;;;;;;;;;;22.70;38.40;;;;;;6186707;28;19959;-57
2022/05/03 01:18:37;;;;;;;;;;;22.70;38.30;;;;;;6186263;28;19963;-54
2022/05/03 01:21:48;;;;;;;;;;;23.10;38.50;;;;;;6187036;28;19929;-58
2022/05/03 01:24:57;;;;;;;;;;;22.80;38.30;;;;;;6186004;28;19928;-56
2022/05/03 01:28:04;;;;;;;;;;;22.70;38.30;;;;;;6184468;28;19979;-54
2022/05/03 01:31:10;;;;;;;;;;;22.90;38.40;;;;;;6177310;28;19976;-58
2022/05/03 01:34:13;;;;;;;;;;;22.80;38.40;;;;;;6182206;28;20323;-57
2022/05/03 01:37:25;;;;;;;;;;;22.80;38.40;;;;;;6185851;28;19928;-55
2022/05/03 01:40:31;;;;;;;;;;;22.60;38.20;;;;;;6184644;28;19936;-55
2022/05/03 01:43:44;;;;;;;;;;;23.10;38.50;;;;;;6166710;28;20356;-57
2022/05/03 01:46:50;;;;;;;;;;;22.90;38.40;;;;;;6181981;28;20012;-58
2022/05/03 01:53:15;;;;;;;;;;;22.70;38.30;;;;;;6181357;28;19998;-53
2022/05/03 01:56:25;;;;;;;;;;;22.40;38.10;;;;;;6182746;28;19936;-56
2022/05/03 01:59:30;;;;;;;;;;;22.70;38.20;;;;;;6179247;28;19932;-57
2022/05/03 02:02:44;;;;;;;;;;;22.80;38.30;;;;;;6182775;28;19929;-57
2022/05/03 02:05:53;;;;;;;;;;;23.00;38.30;;;;;;6182756;28;19925;-54
2022/05/03 02:08:57;;;;;;;;;;;22.90;38.40;;;;;;6182769;28;19929;-55
2022/05/03 02:12:05;;;;;;;;;;;22.70;38.30;;;;;;6164634;28;20064;-57
2022/05/03 02:15:07;;;;;;;;;;;22.90;38.40;;;;;;6175345;28;20861;-56
2022/05/03 02:18:15;;;;;;;;;;;22.70;38.30;;;;;;6175094;28;20760;-56
2022/05/03 02:21:18;;;;;;;;;;;23.20;38.50;;;;;;6170833;28;19924;-54
2022/05/03 02:24:22;;;;;;;;;;;22.70;38.40;;;;;;6175686;28;19925;-59
2022/05/03 02:27:25;;;;;;;;;;;22.70;38.30;;;;;;6164542;28;19929;-57
2022/05/03 02:30:27;;;;;;;;;;;22.60;38.30;;;;;;6169751;28;19921;-53
2022/05/03 02:33:32;;;;;;;;;;;23.10;38.60;;;;;;6180378;28;19925;-56
2022/05/03 02:36:41;;;;;;;;;;;23.10;38.60;;;;;;6180257;28;19921;-55
2022/05/03 02:39:47;;;;;;;;;;;23.00;38.50;;;;;;6180876;28;20027;-53
2022/05/03 02:42:50;;;;;;;;;;;22.50;38.20;;;;;;6162158;28;19928;-54
2022/05/03 02:45:56;;;;;;;;;;;22.80;38.40;;;;;;6174096;28;19959;-57
2022/05/03 02:49:02;;;;;;;;;;;22.60;38.30;;;;;;6177683;28;20823;-57
2022/05/03 02:52:08;;;;;;;;;;;22.80;38.40;;;;;;6180122;28;19928;-56
2022/05/03 02:55:13;;;;;;;;;;;22.50;38.20;;;;;;6179302;28;20745;-59
2022/05/03 02:58:19;;;;;;;;;;;22.90;38.40;;;;;;6184388;28;20039;-57
2022/05/03 03:04:43;;;;;;;;;;;22.80;38.40;;;;;;6185320;28;19987;-55
2022/05/03 03:07:46;;;;;;;;;;;22.80;38.40;;;;;;6184943;28;20039;-58
2022/05/03 03:10:50;;;;;;;;;;;23.00;38.50;;;;;;6167605;28;19964;-56
2022/05/03 03:14:01;;;;;;;;;;;22.60;38.30;;;;;;6187053;28;20060;-55
2022/05/03 03:17:04;;;;;;;;;;;22.90;38.50;;;;;;6182038;28;20380;-56
2022/05/03 03:20:07;;;;;;;;;;;22.80;38.40;;;;;;6178006;28;20856;-54
2022/05/03 03:23:14;;;;;;;;;;;23.10;38.50;;;;;;6187024;28;19984;-60
2022/05/03 03:26:16;;;;;;;;;;;22.80;38.40;;;;;;6185279;28;20742;-56
2022/05/03 03:29:18;;;;;;;;;;;22.80;38.50;;;;;;6186040;28;19929;-57
2022/05/03 03:32:22;;;;;;;;;;;22.50;38.30;;;;;;6188755;28;19976;-54
2022/05/03 03:35:24;;;;;;;;;;;22.90;38.50;;;;;;6186920;28;19929;-56
2022/05/03 03:38:29;;;;;;;;;;;22.70;38.40;;;;;;6184603;28;20041;-59
2022/05/03 03:41:30;;;;;;;;;;;22.90;38.50;;;;;;6188651;28;19940;-59
2022/05/03 03:44:32;;;;;;;;;;;23.00;38.50;;;;;;6180658;28;20070;-57
2022/05/03 03:47:33;;;;;;;;;;;22.90;38.70;;;;;;6184564;28;20673;-58
2022/05/03 03:50:37;;;;;;;;;;;22.60;38.40;;;;;;6180378;28;19926;-57
2022/05/03 03:53:39;;;;;;;;;;;22.90;38.50;;;;;;6187093;28;19933;-57
2022/05/03 03:56:40;;;;;;;;;;;22.90;38.60;;;;;;6186092;28;19921;-57
2022/05/03 03:59:42;;;;;;;;;;;22.80;38.60;;;;;;6168295;28;19932;-57
2022/05/03 04:02:44;;;;;;;;;;;22.30;38.40;;;;;;6184459;28;19932;-53
2022/05/03 04:05:46;;;;;;;;;;;22.80;38.50;;;;;;6180934;28;20089;-56
2022/05/03 04:08:54;;;;;;;;;;;22.40;38.30;;;;;;6178404;28;20784;-58
2022/05/03 04:11:55;;;;;;;;;;;23.30;38.90;;;;;;6185328;28;20018;-59
2022/05/03 04:14:57;;;;;;;;;;;22.80;38.60;;;;;;6187109;28;19921;-56
2022/05/03 04:17:58;;;;;;;;;;;22.90;38.60;;;;;;6180858;28;19929;-56
2022/05/03 04:21:00;;;;;;;;;;;22.60;38.50;;;;;;6182787;28;20048;-57
2022/05/03 04:24:02;;;;;;;;;;;22.90;38.60;;;;;;6183021;28;19976;-55
2022/05/03 04:27:04;;;;;;;;;;;22.70;38.50;;;;;;6183158;28;20949;-59
2022/05/03 04:30:06;;;;;;;;;;;22.70;38.60;;;;;;6183526;28;19924;-57
2022/05/03 04:33:07;;;;;;;;;;;22.40;38.40;;;;;;6178750;28;20035;-55
2022/05/03 04:36:09;;;;;;;;;;;22.90;38.70;;;;;;6182296;28;19929;-57
2022/05/03 04:39:10;;;;;;;;;;;22.30;38.40;;;;;;6182185;28;19925;-58
2022/05/03 04:42:12;;;;;;;;;;;22.90;38.70;;;;;;6180640;28;20182;-57
2022/05/03 04:45:14;;;;;;;;;;;23.00;38.70;;;;;;6167571;28;20760;-55
2022/05/03 04:48:15;;;;;;;;;;;23.30;38.90;;;;;;6180231;28;19929;-57
2022/05/03 04:51:18;;;;;;;;;;;22.80;38.80;;;;;;6184490;28;20023;-55
2022/05/03 04:54:19;;;;;;;;;;;22.50;38.50;;;;;;6181198;28;19929;-57
2022/05/03 04:57:20;;;;;;;;;;;22.50;38.60;;;;;;6182885;28;19971;-56
2022/05/03 05:00:22;;;;;;;;;;;22.80;38.70;;;;;;6183175;28;19936;-58
2022/05/03 05:03:23;;;;;;;;;;;22.40;38.60;;;;;;6182508;28;20689;-58
2022/05/03 05:06:25;;;;;;;;;;;22.70;38.70;;;;;;6177327;28;20890;-55
2022/05/03 05:09:26;;;;;;;;;;;23.10;38.90;;;;;;6173500;28;19931;-59
2022/05/03 05:12:28;;;;;;;;;;;22.70;38.70;;;;;;6183175;28;20871;-56
2022/05/03 05:15:30;;;;;;;;;;;22.60;38.60;;;;;;6170482;28;19929;-56
2022/05/03 05:18:31;;;;;;;;;;;22.70;38.70;;;;;;6160519;28;20039;-57
2022/05/03 05:21:33;;;;;;;;;;;22.40;38.50;;;;;;6171035;28;19935;-54
2022/05/03 05:24:35;;;;;;;;;;;22.40;38.60;;;;;;6172988;28;20962;-57
2022/05/03 05:27:36;;;;;;;;;;;22.70;38.80;;;;;;6177653;28;19925;-55
2022/05/03 05:30:38;;;;;;;;;;;22.50;38.60;;;;;;6168005;28;19931;-57
2022/05/03 05:33:39;;;;;;;;;;;22.80;38.90;;;;;;6171430;28;20753;-55
2022/05/03 05:36:42;;;;;;;;;;;22.80;39.00;;;;;;6169585;28;20051;-56
2022/05/03 05:39:44;;;;;;;;;;;22.20;38.60;;;;;;6173879;28;19943;-54
2022/05/03 05:42:45;;;;;;;;;;;22.50;38.70;;;;;;6167050;28;20857;-54
2022/05/03 05:45:48;;;;;;;;;;;22.80;38.90;;;;;;6161522;28;20816;-58
2022/05/03 05:48:49;;;;;;;;;;;22.60;38.70;;;;;;6162917;28;19929;-55
2022/05/03 05:53:31;;;;;;;;;;;22.60;38.80;;;;;;6169040;28;20056;-57
2022/05/03 05:55:13;;;;;;;;;;;22.70;38.80;;;;;;6152955;28;19925;-56
2022/05/03 05:58:14;;;;;;;;;;;22.80;38.90;;;;;;6168660;28;19966;-52
2022/05/03 06:01:15;;;;;;;;;;;22.70;38.80;;;;;;6165252;28;19932;-52
2022/05/03 06:04:17;;;;;;;;;;;22.70;39.40;;;;;;6151061;28;20289;-59
2022/05/03 06:07:19;;;;;;;;;;;22.60;38.70;;;;;;6148875;28;19933;-54
2022/05/03 06:10:20;;;;;;;;;;;22.80;38.80;;;;;;6147267;28;20088;-57
2022/05/03 06:13:22;;;;;;;;;;;22.70;38.60;;;;;;6108422;28;20357;-55
2022/05/03 06:16:23;;;;;;;;;;;23.00;38.90;;;;;;6143958;28;20002;-57
2022/05/03 06:19:25;;;;;;;;;;;22.80;38.70;;;;;;6144516;28;19929;-58
2022/05/03 06:22:27;;;;;;;;;;;22.80;38.70;;;;;;6135485;28;19936;-57
2022/05/03 06:25:29;;;;;;;;;;;22.60;38.70;;;;;;6129110;28;20466;-60
2022/05/03 06:28:30;;;;;;;;;;;22.80;38.80;;;;;;6121474;28;19930;-55
2022/05/03 06:31:32;;;;;;;;;;;22.90;38.80;;;;;;6126664;28;19968;-59
2022/05/03 06:34:33;;;;;;;;;;;22.90;38.70;;;;;;6113155;28;20124;-60
2022/05/03 06:37:36;;;;;;;;;;;22.80;38.60;;;;;;6113761;28;20101;-62
2022/05/03 06:40:37;;;;;;;;;;;22.80;38.60;;;;;;6104539;28;20085;-63
2022/05/03 06:43:39;;;;;;;;;;;22.70;38.60;;;;;;6076487;28;21238;-60
2022/05/03 06:46:41;;;;;;;;;;;22.80;38.60;;;;;;6085709;28;21299;-61
2022/05/03 06:49:43;;;;;;;;;;;22.80;38.70;;;;;;6098855;28;19936;-57
2022/05/03 06:52:45;;;;;;;;;;;22.70;38.70;;;;;;6060670;28;20108;-58
2022/05/03 06:55:46;;;;;;;;;;;22.40;38.70;;;;;;6057166;28;20254;-57
2022/05/03 06:58:47;;;;;;;;;;;23.10;39.10;;;;;;6048078;28;20369;-58
2022/05/03 07:01:49;;;;;;;;;;;22.80;39.00;;;;;;6007750;28;21741;-56
2022/05/03 07:04:50;;;;;;;;;;;22.80;39.00;;;;;;6000037;28;20022;-58
2022/05/03 07:07:52;;;;;;;;;;;22.50;39.10;;;;;;5969974;28;20097;-55
2022/05/03 07:10:54;;;;;;;;;;;22.20;39.20;;;;;;5967827;28;19929;-56
2022/05/03 07:13:56;;;;;;;;;;;22.70;39.70;;;;;;5984504;28;19992;-57
2022/05/03 07:16:58;;;;;;;;;;;22.50;39.60;;;;;;5964272;28;20042;-55
2022/05/03 07:23:15;;;;;;;;;;;22.20;39.40;;;;;;5913607;28;19936;-57
2022/05/03 07:26:20;;;;;;;;;;;22.30;38.90;;;;;;5936025;28;20161;-55
2022/05/03 07:36:19;;;;;;;;;;;22.40;39.10;;;;;;5928403;28;19935;-58
2022/05/03 07:39:21;;;;;;;;;;;22.70;39.50;;;;;;5890734;28;19929;-57
2022/05/03 07:42:23;;;;;;;;;;;22.40;39.10;;;;;;5927584;28;19967;-57
2022/05/03 07:45:24;;;;;;;;;;;22.60;39.70;;;;;;5895267;28;19935;-60
2022/05/03 07:48:26;;;;;;;;;;;22.80;39.30;;;;;;5904592;28;21476;-55
2022/05/03 07:51:28;;;;;;;;;;;22.60;39.10;;;;;;5867615;28;19929;-60
2022/05/03 07:54:30;;;;;;;;;;;22.80;39.10;;;;;;5885103;28;20316;-59
2022/05/03 07:57:32;;;;;;;;;;;23.00;39.10;;;;;;5886741;28;21235;-57
2022/05/03 08:00:36;;;;;;;;;;;22.40;38.80;;;;;;5871728;28;19955;-61
2022/05/03 08:04:02;;;;;;;;;;;22.60;38.60;;;;;;5815389;28;20051;-56
2022/05/03 08:07:04;;;;;;;;;;;23.10;39.40;;;;;;5884306;28;20653;-59
2022/05/03 08:10:06;;;;;;;;;;;23.00;39.10;;;;;;5921480;28;39035;-55
2022/05/03 08:13:33;;;;;;;;;;;22.80;38.90;;;;;;5917380;28;19948;-57
2022/05/03 08:16:35;;;;;;;;;;;22.90;38.90;;;;;;5925065;28;19988;-53
2022/05/03 08:20:02;;;;;;;;;;;22.80;39.00;;;;;;5891165;28;19933;-53
2022/05/03 08:23:03;;;;;;;;;;;23.00;39.00;;;;;;5889809;28;20010;-52
2022/05/03 08:26:05;;;;;;;;;;;22.90;38.90;;;;;;5901821;28;19929;-54
2022/05/03 08:29:36;;;;;;;;;;;22.90;38.80;;;;;;5898978;28;25952;-58
2022/05/03 08:32:38;;;;;;;;;;;22.80;38.70;;;;;;5912327;28;19929;-60
2022/05/03 08:35:39;;;;;;;;;;;23.00;38.90;;;;;;5909247;28;21355;-63
2022/05/03 08:42:06;;;;;;;;;;;22.90;38.70;;;;;;5901288;28;19933;-65
2022/05/03 08:45:09;;;;;;;;;;;23.20;38.90;;;;;;5924023;28;20074;-63
2022/05/03 08:48:35;;;;;;;;;;;23.10;38.90;;;;;;5918795;28;19929;-60
2022/05/03 08:51:40;;;;;;;;;;;23.30;38.70;;;;;;5902337;28;20044;-62
2022/05/03 08:54:43;;;;;;;;;;;23.40;39.00;;;;;;5897070;28;20022;-62
2022/05/03 08:57:45;;;;;;;;;;;23.20;38.90;;;;;;5917571;28;19929;-55
2022/05/03 09:00:47;;;;;;;;;;;23.00;38.80;;;;;;5886609;28;19929;-60
2022/05/03 09:03:48;;;;;;;;;;;23.30;39.20;;;;;;5873911;28;19932;-61
2022/05/03 09:06:51;;;;;;;;;;;23.40;39.00;;;;;;5852992;28;19929;-58
2022/05/03 09:10:20;;;;;;;;;;;22.90;38.80;;;;;;5917013;28;19946;-55
2022/05/03 09:13:23;;;;;;;;;;;23.40;39.40;;;;;;5897963;28;19929;-63
2022/05/03 09:16:24;;;;;;;;;;;23.50;39.00;;;;;;5895548;28;20051;-58
2022/05/03 09:19:32;;;;;;;;;;;23.50;39.00;;;;;;5891016;28;36020;-60
2022/05/03 09:25:56;;;;;;;;;;;23.10;38.80;;;;;;5867085;28;19935;-57
2022/05/03 09:29:01;;;;;;;;;;;23.20;38.80;;;;;;5886743;28;19976;-56
2022/05/03 09:32:02;;;;;;;;;;;23.20;38.80;;;;;;5904263;28;20837;-56
2022/05/03 09:35:05;;;;;;;;;;;23.40;39.00;;;;;;5889846;28;20011;-55
2022/05/03 09:38:06;;;;;;;;;;;23.50;39.00;;;;;;5868389;28;22226;-57
2022/05/03 09:41:12;;;;;;;;;;;23.50;39.00;;;;;;5896091;28;34821;-57
2022/05/03 09:44:14;;;;;;;;;;;23.40;38.90;;;;;;5857299;28;20000;-52
2022/05/03 09:47:41;;;;;;;;;;;23.30;38.80;;;;;;5843678;28;19929;-57
2022/05/03 09:50:43;;;;;;;;;;;23.40;38.70;;;;;;5851493;28;21850;-55
2022/05/03 09:53:55;;;;;;;;;;;23.60;39.00;;;;;;5854019;28;19972;-58
2022/05/03 09:56:58;;;;;;;;;;;23.40;38.80;;;;;;5845283;28;22773;-57
2022/05/03 10:00:01;;;;;;;;;;;23.70;38.90;;;;;;5855147;28;26218;-57
2022/05/03 10:03:04;;;;;;;;;;;23.60;38.90;;;;;;5853362;28;20781;-56
2022/05/03 10:06:06;;;;;;;;;;;23.70;38.90;;;;;;5877838;28;20063;-55
2022/05/03 10:09:08;;;;;;;;;;;23.70;39.00;;;;;;5880746;28;20068;-53
2022/05/03 10:12:11;;;;;;;;;;;23.70;38.90;;;;;;5904455;28;19929;-53
2022/05/03 10:20:35;;;;;;;;;;;23.70;38.90;;;;;;5861673;28;19983;-57
2022/05/03 10:21:55;;;;;;;;;;;23.70;38.90;;;;;;5928441;28;19928;-57
2022/05/03 10:24:56;;;;;;;;;;;23.60;38.80;;;;;;5931026;28;19960;-54
2022/05/03 10:27:58;;;;;;;;;;;23.70;38.90;;;;;;5918142;28;25631;-57
2022/05/03 10:31:07;;;;;;;;;;;23.70;38.80;;;;;;5941785;28;19979;-54
2022/05/03 10:34:27;;;;;;;;;;;23.50;39.30;;;;;;5947307;28;19935;-52
2022/05/03 10:37:43;;;;;;;;;;;23.80;38.70;;;;;;5980812;28;20187;-58
2022/05/03 10:40:48;;;;;;;;;;;23.80;38.90;;;;;;5989709;28;21302;-58
2022/05/03 10:43:49;;;;;;;;;;;23.50;38.60;;;;;;6032824;28;22282;-58
2022/05/03 10:47:03;;;;;;;;;;;23.70;38.70;;;;;;6019618;28;19936;-54
2022/05/03 10:50:19;;;;;;;;;;;23.70;38.80;;;;;;6047614;28;19933;-56
2022/05/03 10:53:23;;;;;;;;;;;23.60;39.00;;;;;;6058530;28;19936;-54
2022/05/03 10:56:24;;;;;;;;;;;23.80;38.70;;;;;;6049656;28;20067;-57
2022/05/03 10:59:44;;;;;;;;;;;23.90;38.80;;;;;;6048333;28;20006;-58
2022/05/03 11:03:00;;;;;;;;;;;23.90;38.80;;;;;;6059556;28;19929;-57
2022/05/03 11:06:18;;;;;;;;;;;23.80;38.60;;;;;;6048489;28;19929;-56
2022/05/03 11:09:28;;;;;;;;;;;23.90;38.60;;;;;;6085402;28;20048;-54
2022/05/03 11:12:44;;;;;;;;;;;23.90;38.60;;;;;;6064380;28;20165;-60
2022/05/03 11:16:01;;;;;;;;;;;23.90;38.60;;;;;;6061363;28;19955;-55
2022/05/03 11:19:09;;;;;;;;;;;24.00;38.70;;;;;;6063855;28;19982;-56
2022/05/03 11:22:11;;;;;;;;;;;23.60;38.50;;;;;;6030207;28;20918;-55
2022/05/03 11:25:14;;;;;;;;;;;24.00;38.70;;;;;;6064601;28;19935;-56
2022/05/03 11:28:16;;;;;;;;;;;23.90;38.60;;;;;;6037974;28;19941;-53
2022/05/03 11:31:19;;;;;;;;;;;24.10;38.70;;;;;;6038790;28;19972;-55
2022/05/03 11:34:21;;;;;;;;;;;23.90;38.60;;;;;;6033621;28;19951;-57
2022/05/03 11:37:23;;;;;;;;;;;24.20;38.60;;;;;;6050706;28;19968;-60
2022/05/03 11:40:26;;;;;;;;;;;23.90;38.50;;;;;;6050250;28;19979;-57
2022/05/03 11:43:33;;;;;;;;;;;24.00;38.50;;;;;;6051226;28;20047;-61
2022/05/03 11:46:34;;;;;;;;;;;24.10;38.60;;;;;;6031617;28;21190;-59
2022/05/03 11:49:36;;;;;;;;;;;24.00;38.40;;;;;;6026575;28;19929;-59
2022/05/03 11:56:00;;;;;;;;;;;24.10;38.50;;;;;;5973134;28;23038;-59
2022/05/03 11:59:02;;;;;;;;;;;24.20;38.40;;;;;;5989400;28;21179;-56
2022/05/03 12:02:14;;;;;;;;;;;24.20;38.40;;;;;;5911795;28;19936;-58
2022/05/03 12:05:17;;;;;;;;;;;24.00;38.30;;;;;;5940000;28;20015;-56
2022/05/03 12:08:19;;;;;;;;;;;24.10;38.30;;;;;;5842500;28;20022;-55
2022/05/03 12:11:24;;;;;;;;;;;23.90;38.10;;;;;;5873729;28;20489;-55
2022/05/03 12:14:33;;;;;;;;;;;24.30;38.30;;;;;;5863056;28;19933;-56
2022/05/03 12:17:49;;;;;;;;;;;24.30;38.90;;;;;;5830541;28;20613;-52
2022/05/03 12:20:51;;;;;;;;;;;24.30;38.40;;;;;;5831951;28;31434;-53
2022/05/03 12:23:58;;;;;;;;;;;24.20;38.30;;;;;;5804234;28;21809;-54
2022/05/03 12:27:25;;;;;;;;;;;24.20;38.30;;;;;;5800256;28;22254;-60
2022/05/03 12:30:27;;;;;;;;;;;24.20;38.10;;;;;;5870891;28;19933;-58
2022/05/03 12:33:30;;;;;;;;;;;24.00;38.10;;;;;;5823892;28;19968;-58
2022/05/03 12:36:36;;;;;;;;;;;24.30;38.40;;;;;;5847598;28;20617;-57
2022/05/03 12:39:37;;;;;;;;;;;24.30;38.30;;;;;;5879411;28;20594;-59
2022/05/03 12:42:41;;;;;;;;;;;24.30;38.30;;;;;;5886568;28;20022;-59
2022/05/03 12:45:54;;;;;;;;;;;24.30;38.20;;;;;;5867429;28;19936;-59
2022/05/03 12:49:26;;;;;;;;;;;24.10;38.00;;;;;;5853387;28;19983;-60
2022/05/03 12:52:28;;;;;;;;;;;24.30;38.30;;;;;;5873373;28;19930;-60
2022/05/03 12:55:30;;;;;;;;;;;24.40;38.00;;;;;;5801106;28;19987;-57
2022/05/03 12:58:32;;;;;;;;;;;24.50;38.10;;;;;;5776874;28;20541;-55
2022/05/03 13:01:35;;;;;;;;;;;24.70;38.10;;;;;;5823204;28;20762;-53
2022/05/03 13:04:37;;;;;;;;;;;24.60;38.00;;;;;;5784395;28;19930;-63
2022/05/03 13:07:39;;;;;;;;;;;24.20;37.80;;;;;;5801802;28;19936;-52
2022/05/03 13:10:40;;;;;;;;;;;24.40;38.00;;;;;;5784046;28;19930;-58
2022/05/03 13:13:42;;;;;;;;;;;24.50;38.10;;;;;;5800794;28;21485;-59
2022/05/03 13:16:45;;;;;;;;;;;24.60;38.00;;;;;;5805185;28;19934;-55
2022/05/03 13:19:46;;;;;;;;;;;24.40;38.60;;;;;;5818561;28;19969;-59
2022/05/03 13:22:48;;;;;;;;;;;24.30;37.90;;;;;;5828046;28;19930;-59
2022/05/03 13:25:50;;;;;;;;;;;24.20;37.70;;;;;;5798423;28;19929;-59
2022/05/03 13:28:53;;;;;;;;;;;24.40;37.90;;;;;;5864059;28;19929;-54
2022/05/03 13:31:54;;;;;;;;;;;24.40;37.80;;;;;;5875112;28;19929;-57
2022/05/03 13:34:56;;;;;;;;;;;24.40;38.00;;;;;;5882247;28;20458;-57
2022/05/03 13:41:13;;;;;;;;;;;23.90;37.60;;;;;;5885380;28;20135;-59
2022/05/03 13:44:15;;;;;;;;;;;24.20;37.80;;;;;;5867405;28;19936;-58
2022/05/03 13:47:17;;;;;;;;;;;24.20;37.80;;;;;;5865148;28;19929;-60
2022/05/03 13:50:18;;;;;;;;;;;24.10;37.70;;;;;;5888209;28;19988;-62
2022/05/03 13:53:20;;;;;;;;;;;24.00;37.60;;;;;;5851035;28;19936;-61
2022/05/03 13:56:22;;;;;;;;;;;24.30;37.70;;;;;;5895950;28;19929;-59
2022/05/03 13:59:24;;;;;;;;;;;24.20;37.80;;;;;;5892868;28;19967;-60
2022/05/03 14:02:25;;;;;;;;;;;24.20;38.20;;;;;;5849360;28;20008;-57
2022/05/03 14:05:27;;;;;;;;;;;23.70;37.40;;;;;;5854332;28;19969;-61
2022/05/03 14:08:29;;;;;;;;;;;24.20;37.50;;;;;;5836792;28;20059;-61
2022/05/03 14:11:31;;;;;;;;;;;24.00;37.40;;;;;;5868951;28;19937;-60
2022/05/03 14:14:33;;;;;;;;;;;23.90;37.40;;;;;;5884867;28;19979;-57
2022/05/03 14:17:35;;;;;;;;;;;24.30;37.50;;;;;;5905581;28;19934;-61
2022/05/03 14:20:36;;;;;;;;;;;24.10;37.40;;;;;;5876924;28;19929;-61
2022/05/03 14:23:39;;;;;;;;;;;24.20;37.50;;;;;;5861492;28;20043;-59
2022/05/03 14:26:40;;;;;;;;;;;24.20;37.50;;;;;;5860318;28;19936;-59
2022/05/03 14:29:42;;;;;;;;;;;23.90;37.50;;;;;;5862202;28;21337;-59
2022/05/03 14:32:45;;;;;;;;;;;24.10;37.60;;;;;;5906971;28;20047;-62
2022/05/03 14:35:47;;;;;;;;;;;23.80;37.50;;;;;;5877811;28;19929;-59
2022/05/03 14:38:48;;;;;;;;;;;24.00;37.70;;;;;;5916409;28;19934;-62
2022/05/03 14:41:51;;;;;;;;;;;23.80;37.60;;;;;;5926764;28;19936;-62
2022/05/03 14:44:53;;;;;;;;;;;23.90;37.70;;;;;;5907750;28;19936;-57
2022/05/03 14:47:55;;;;;;;;;;;23.80;37.80;;;;;;5893044;28;19936;-58
2022/05/03 14:51:22;;;;;;;;;;;23.90;37.70;;;;;;5916658;28;22289;-59
2022/05/03 14:54:24;;;;;;;;;;;23.80;37.70;;;;;;5932008;28;20059;-60
2022/05/03 15:03:55;;;;;;;;;;;23.90;37.60;;;;;;5919419;28;20026;-58
2022/05/03 15:06:57;;;;;;;;;;;23.90;37.60;;;;;;5955690;28;20067;-59
2022/05/03 15:09:58;;;;;;;;;;;24.00;37.60;;;;;;5952894;28;20055;-58
2022/05/03 15:13:01;;;;;;;;;;;24.00;38.20;;;;;;5946922;28;19929;-60
2022/05/03 15:16:07;;;;;;;;;;;23.90;37.50;;;;;;5959535;28;19928;-59
2022/05/03 15:19:08;;;;;;;;;;;23.70;37.30;;;;;;5988272;28;20083;-57
2022/05/03 15:22:10;;;;;;;;;;;24.00;37.50;;;;;;6016382;28;19968;-57
2022/05/03 15:25:12;;;;;;;;;;;24.00;37.50;;;;;;5997749;28;20055;-58
2022/05/03 15:28:14;;;;;;;;;;;23.90;37.50;;;;;;5963087;28;20067;-61
2022/05/03 15:31:16;;;;;;;;;;;24.00;37.50;;;;;;5965718;28;19929;-61
2022/05/03 15:34:18;;;;;;;;;;;23.90;37.40;;;;;;5991866;28;19929;-57
2022/05/03 15:37:20;;;;;;;;;;;24.00;37.50;;;;;;5996265;28;21324;-59
2022/05/03 15:40:22;;;;;;;;;;;23.90;37.30;;;;;;6013285;28;19972;-56
2022/05/03 15:43:23;;;;;;;;;;;24.00;38.00;;;;;;5995968;28;19960;-56
2022/05/03 15:46:25;;;;;;;;;;;23.80;37.30;;;;;;5951320;28;19929;-60
2022/05/03 15:49:30;;;;;;;;;;;23.90;37.30;;;;;;6001379;28;20040;-59
2022/05/03 15:52:32;;;;;;;;;;;24.20;37.40;;;;;;5974788;28;19935;-55
2022/05/03 15:55:34;;;;;;;;;;;24.10;37.40;;;;;;6024393;28;20056;-59
2022/05/03 15:58:35;;;;;;;;;;;23.90;37.20;;;;;;6042726;28;19933;-60
2022/05/03 16:01:37;;;;;;;;;;;24.10;37.40;;;;;;6034481;28;19960;-59
2022/05/03 16:04:45;;;;;;;;;;;24.00;37.30;;;;;;6030400;28;19936;-61
2022/05/03 16:07:47;;;;;;;;;;;24.00;37.80;;;;;;6046778;28;19929;-58
2022/05/03 16:10:48;;;;;;;;;;;24.10;37.40;;;;;;6038741;28;19971;-58
2022/05/03 16:13:51;;;;;;;;;;;24.10;37.30;;;;;;6063863;28;19935;-60
2022/05/03 16:16:54;;;;;;;;;;;24.10;37.90;;;;;;6086445;28;19933;-57
2022/05/03 16:19:58;;;;;;;;;;;24.10;37.20;;;;;;6074917;28;20022;-56
2022/05/03 16:23:01;;;;;;;;;;;24.20;37.20;;;;;;6100988;28;19933;-59
2022/05/03 16:26:04;;;;;;;;;;;24.20;37.20;;;;;;6097031;28;19998;-56
2022/05/03 16:29:05;;;;;;;;;;;24.30;37.20;;;;;;6090265;28;19935;-56
2022/05/03 16:32:08;;;;;;;;;;;24.20;37.30;;;;;;6093658;28;19967;-56
2022/05/03 16:35:09;;;;;;;;;;;24.30;37.30;;;;;;6119876;28;20048;-58
2022/05/03 16:44:40;;;;;;;;;;;24.20;37.20;;;;;;6138258;28;19928;-58
2022/05/03 16:47:43;;;;;;;;;;;24.20;37.10;;;;;;6122538;28;19976;-52
2022/05/03 16:50:45;;;;;;;;;;;24.20;37.10;;;;;;6135853;28;19935;-56
2022/05/03 16:53:46;;;;;;;;;;;24.30;37.20;;;;;;6125563;28;19929;-56
2022/05/03 16:56:48;;;;;;;;;;;24.10;37.00;;;;;;6137084;28;19932;-57
2022/05/03 16:59:50;;;;;;;;;;;24.90;37.40;;;;;;6139964;28;19952;-57
2022/05/03 17:02:52;;;;;;;;;;;24.20;37.20;;;;;;6130170;28;20097;-52
2022/05/03 17:05:54;;;;;;;;;;;23.90;36.90;;;;;;6137721;28;20823;-54
2022/05/03 17:08:55;;;;;;;;;;;24.00;37.10;;;;;;6140527;28;21836;-57
2022/05/03 17:11:57;;;;;;;;;;;24.20;37.10;;;;;;6136880;28;19937;-53
2022/05/03 17:14:59;;;;;;;;;;;24.10;37.10;;;;;;6145411;28;20163;-55
2022/05/03 17:18:01;;;;;;;;;;;24.00;37.00;;;;;;6147687;28;19928;-53
2022/05/03 17:21:03;;;;;;;;;;;24.20;37.10;;;;;;6124294;28;19937;-54
2022/05/03 17:24:05;;;;;;;;;;;24.10;37.10;;;;;;6143286;28;20912;-55
2022/05/03 17:27:07;;;;;;;;;;;24.10;37.10;;;;;;6134291;28;19928;-55
2022/05/03 17:30:09;;;;;;;;;;;24.30;37.30;;;;;;6147067;28;19928;-55
2022/05/03 17:33:11;;;;;;;;;;;23.90;37.00;;;;;;6154586;28;19929;-56
2022/05/03 17:36:14;;;;;;;;;;;24.20;37.20;;;;;;6153949;28;19925;-54
2022/05/03 17:39:15;;;;;;;;;;;24.20;37.10;;;;;;6155859;28;20070;-58
2022/05/03 17:42:17;;;;;;;;;;;24.20;37.10;;;;;;6162015;28;19999;-54
2022/05/03 17:45:18;;;;;;;;;;;24.20;37.20;;;;;;6158451;28;19929;-54
2022/05/03 17:48:20;;;;;;;;;;;24.10;37.10;;;;;;6165247;28;19930;-52
2022/05/03 17:53:52;;;;;;;;;;;24.30;37.20;;;;;;6163791;28;20830;-58
2022/05/03 17:54:44;;;;;;;;;;;24.30;37.20;;;;;;6169011;28;19928;-56
2022/05/03 17:57:46;;;;;;;;;;;24.20;37.10;;;;;;6170537;28;19997;-54
2022/05/03 18:00:48;;;;;;;;;;;24.00;37.10;;;;;;6158234;28;20056;-55
2022/05/03 18:03:50;;;;;;;;;;;24.30;37.20;;;;;;6166383;28;19968;-54
2022/05/03 18:10:05;;;;;;;;;;;24.30;37.30;;;;;;6169244;28;20041;-53
2022/05/03 18:13:06;;;;;;;;;;;24.20;37.30;;;;;;6173371;28;19999;-53
2022/05/03 18:16:12;;;;;;;;;;;24.10;37.30;;;;;;6171238;28;20058;-56
2022/05/03 18:19:14;;;;;;;;;;;24.00;37.30;;;;;;6151814;28;19936;-52
2022/05/03 18:22:15;;;;;;;;;;;23.90;37.30;;;;;;6174895;28;20018;-61
2022/05/03 18:25:17;;;;;;;;;;;23.90;37.40;;;;;;6174869;28;19935;-53
2022/05/03 18:28:19;;;;;;;;;;;23.70;37.30;;;;;;6184564;28;20837;-54
2022/05/03 18:31:20;;;;;;;;;;;23.90;37.40;;;;;;6177770;28;19956;-53
2022/05/03 18:34:22;;;;;;;;;;;24.00;37.50;;;;;;6176079;28;19964;-57
2022/05/03 18:37:24;;;;;;;;;;;24.00;37.50;;;;;;6178545;28;20035;-53
2022/05/03 18:40:30;;;;;;;;;;;23.50;37.20;;;;;;6181237;28;19941;-56
2022/05/03 18:43:31;;;;;;;;;;;23.90;37.50;;;;;;6183739;28;20845;-55